sensor_id;sensor_type;location;lat;lon;timestamp;pressure;altitude;pressure_sealevel;temperature
80537;BMP280;69867;47.074;15.404;2024-02-26T00:01:54;96332.75;;;3.05
80537;BMP280;69867;47.074;15.404;2024-02-26T00:04:20;96335.47;;;2.94
80537;BMP280;69867;47.074;15.404;2024-02-26T00:06:45;96330.44;;;2.86
80537;BMP280;69867;47.074;15.404;2024-02-26T00:09:10;96327.94;;;2.83
80537;BMP280;69867;47.074;15.404;2024-02-26T00:11:36;96330.50;;;2.83
80537;BMP280;69867;47.074;15.404;2024-02-26T00:14:01;96315.94;;;2.84
80537;BMP280;69867;47.074;15.404;2024-02-26T00:16:27;96313.28;;;2.92
80537;BMP280;69867;47.074;15.404;2024-02-26T00:18:52;96314.97;;;2.93
80537;BMP280;69867;47.074;15.404;2024-02-26T00:21:17;96303.03;;;2.92
80537;BMP280;69867;47.074;15.404;2024-02-26T00:23:43;96301.25;;;2.97
80537;BMP280;69867;47.074;15.404;2024-02-26T00:26:10;96299.56;;;2.94
80537;BMP280;69867;47.074;15.404;2024-02-26T00:28:35;96286.81;;;2.89
80537;BMP280;69867;47.074;15.404;2024-02-26T00:31:00;96289.41;;;2.86
80537;BMP280;69867;47.074;15.404;2024-02-26T00:33:26;96293.72;;;2.83
80537;BMP280;69867;47.074;15.404;2024-02-26T00:35:51;96294.72;;;2.74
80537;BMP280;69867;47.074;15.404;2024-02-26T00:38:17;96280.13;;;2.78
80537;BMP280;69867;47.074;15.404;2024-02-26T00:40:42;96285.22;;;2.81
80537;BMP280;69867;47.074;15.404;2024-02-26T00:43:07;96301.53;;;2.75
80537;BMP280;69867;47.074;15.404;2024-02-26T00:45:33;96302.44;;;2.71
80537;BMP280;69867;47.074;15.404;2024-02-26T00:47:59;96310.22;;;2.65
80537;BMP280;69867;47.074;15.404;2024-02-26T00:50:24;96294.84;;;2.65
80537;BMP280;69867;47.074;15.404;2024-02-26T00:52:49;96285.47;;;2.63
80537;BMP280;69867;47.074;15.404;2024-02-26T00:55:15;96300.84;;;2.60
80537;BMP280;69867;47.074;15.404;2024-02-26T00:57:40;96296.59;;;2.58
80537;BMP280;69867;47.074;15.404;2024-02-26T01:00:06;96301.78;;;2.54
80537;BMP280;69867;47.074;15.404;2024-02-26T01:02:31;96290.72;;;2.50
80537;BMP280;69867;47.074;15.404;2024-02-26T01:04:57;96290.75;;;2.47
80537;BMP280;69867;47.074;15.404;2024-02-26T01:07:22;96287.41;;;2.41
80537;BMP280;69867;47.074;15.404;2024-02-26T01:09:47;96298.50;;;2.43
80537;BMP280;69867;47.074;15.404;2024-02-26T01:12:13;96290.84;;;2.40
80537;BMP280;69867;47.074;15.404;2024-02-26T01:14:38;96285.75;;;2.37
80537;BMP280;69867;47.074;15.404;2024-02-26T01:17:03;96287.63;;;2.24
80537;BMP280;69867;47.074;15.404;2024-02-26T01:19:29;96278.28;;;2.18
80537;BMP280;69867;47.074;15.404;2024-02-26T01:21:54;96274.03;;;2.16
80537;BMP280;69867;47.074;15.404;2024-02-26T01:24:19;96277.50;;;2.12
80537;BMP280;69867;47.074;15.404;2024-02-26T01:26:45;96274.13;;;2.08
80537;BMP280;69867;47.074;15.404;2024-02-26T01:29:10;96270.72;;;2.08
80537;BMP280;69867;47.074;15.404;2024-02-26T01:31:35;96282.66;;;2.10
80537;BMP280;69867;47.074;15.404;2024-02-26T01:34:01;96274.06;;;2.14
80537;BMP280;69867;47.074;15.404;2024-02-26T01:36:26;96266.31;;;2.19
80537;BMP280;69867;47.074;15.404;2024-02-26T01:38:52;96264.50;;;2.29
80537;BMP280;69867;47.074;15.404;2024-02-26T01:41:17;96254.22;;;2.30
80537;BMP280;69867;47.074;15.404;2024-02-26T01:43:42;96257.66;;;2.29
80537;BMP280;69867;47.074;15.404;2024-02-26T01:46:13;96258.47;;;2.31
80537;BMP280;69867;47.074;15.404;2024-02-26T01:48:41;96255.94;;;2.31
80537;BMP280;69867;47.074;15.404;2024-02-26T01:51:07;96256.84;;;2.25
80537;BMP280;69867;47.074;15.404;2024-02-26T01:53:33;96248.28;;;2.27
80537;BMP280;69867;47.074;15.404;2024-02-26T01:55:58;96243.09;;;2.33
80537;BMP280;69867;47.074;15.404;2024-02-26T01:58:24;96244.88;;;2.26
80537;BMP280;69867;47.074;15.404;2024-02-26T02:00:49;96248.34;;;2.22
80537;BMP280;69867;47.074;15.404;2024-02-26T02:03:15;96246.56;;;2.27
80537;BMP280;69867;47.074;15.404;2024-02-26T02:05:41;96245.81;;;2.19
80537;BMP280;69867;47.074;15.404;2024-02-26T02:08:07;96242.34;;;2.23
80537;BMP280;69867;47.074;15.404;2024-02-26T02:10:32;96237.28;;;2.20
80537;BMP280;69867;47.074;15.404;2024-02-26T02:12:57;96230.41;;;2.23
80537;BMP280;69867;47.074;15.404;2024-02-26T02:15:23;96241.44;;;2.29
80537;BMP280;69867;47.074;15.404;2024-02-26T02:17:48;96231.25;;;2.24
80537;BMP280;69867;47.074;15.404;2024-02-26T02:20:17;96237.28;;;2.20
80537;BMP280;69867;47.074;15.404;2024-02-26T02:22:44;96239.84;;;2.18
80537;BMP280;69867;47.074;15.404;2024-02-26T02:25:09;96239.84;;;2.20
80537;BMP280;69867;47.074;15.404;2024-02-26T02:27:35;96234.72;;;2.18
80537;BMP280;69867;47.074;15.404;2024-02-26T02:30:01;96231.28;;;2.21
80537;BMP280;69867;47.074;15.404;2024-02-26T02:32:28;96226.97;;;2.24
80537;BMP280;69867;47.074;15.404;2024-02-26T02:34:54;96221.81;;;2.28
80537;BMP280;69867;47.074;15.404;2024-02-26T02:37:19;96234.63;;;2.28
80537;BMP280;69867;47.074;15.404;2024-02-26T02:39:45;96220.09;;;2.27
80537;BMP280;69867;47.074;15.404;2024-02-26T02:42:10;96233.00;;;2.20
80537;BMP280;69867;47.074;15.404;2024-02-26T02:44:35;96232.16;;;2.18
80537;BMP280;69867;47.074;15.404;2024-02-26T02:47:01;96237.28;;;2.18
80537;BMP280;69867;47.074;15.404;2024-02-26T02:49:26;96231.34;;;2.15
80537;BMP280;69867;47.074;15.404;2024-02-26T02:51:51;96230.53;;;2.11
80537;BMP280;69867;47.074;15.404;2024-02-26T02:54:17;96239.16;;;2.06
80537;BMP280;69867;47.074;15.404;2024-02-26T02:56:42;96234.09;;;2.00
80537;BMP280;69867;47.074;15.404;2024-02-26T02:59:07;96245.25;;;1.96
80537;BMP280;69867;47.074;15.404;2024-02-26T03:01:32;96236.75;;;1.92
80537;BMP280;69867;47.074;15.404;2024-02-26T03:03:58;96238.47;;;1.90
80537;BMP280;69867;47.074;15.404;2024-02-26T03:06:23;96225.72;;;1.85
80537;BMP280;69867;47.074;15.404;2024-02-26T03:08:48;96228.31;;;1.82
80537;BMP280;69867;47.074;15.404;2024-02-26T03:11:14;96219.00;;;1.77
80537;BMP280;69867;47.074;15.404;2024-02-26T03:13:40;96225.00;;;1.73
80537;BMP280;69867;47.074;15.404;2024-02-26T03:16:05;96216.50;;;1.71
80537;BMP280;69867;47.074;15.404;2024-02-26T03:18:31;96207.13;;;1.70
80537;BMP280;69867;47.074;15.404;2024-02-26T03:20:56;96213.91;;;1.74
80537;BMP280;69867;47.074;15.404;2024-02-26T03:23:21;96203.66;;;1.74
80537;BMP280;69867;47.074;15.404;2024-02-26T03:25:46;96206.16;;;1.78
80537;BMP280;69867;47.074;15.404;2024-02-26T03:28:12;96204.53;;;1.73
80537;BMP280;69867;47.074;15.404;2024-02-26T03:30:37;96202.78;;;1.75
80537;BMP280;69867;47.074;15.404;2024-02-26T03:33:02;96212.16;;;1.76
80537;BMP280;69867;47.074;15.404;2024-02-26T03:35:28;96207.13;;;1.70
80537;BMP280;69867;47.074;15.404;2024-02-26T03:37:53;96199.50;;;1.65
80537;BMP280;69867;47.074;15.404;2024-02-26T03:40:18;96196.94;;;1.64
80537;BMP280;69867;47.074;15.404;2024-02-26T03:42:44;96193.63;;;1.55
80537;BMP280;69867;47.074;15.404;2024-02-26T03:45:09;96195.25;;;1.61
80537;BMP280;69867;47.074;15.404;2024-02-26T03:47:35;96199.59;;;1.54
80537;BMP280;69867;47.074;15.404;2024-02-26T03:50:00;96194.53;;;1.50
80537;BMP280;69867;47.074;15.404;2024-02-26T03:52:25;96200.53;;;1.47
80537;BMP280;69867;47.074;15.404;2024-02-26T03:54:51;96196.25;;;1.49
80537;BMP280;69867;47.074;15.404;2024-02-26T03:57:16;96190.25;;;1.50
80537;BMP280;69867;47.074;15.404;2024-02-26T03:59:41;96197.91;;;1.52
80537;BMP280;69867;47.074;15.404;2024-02-26T04:02:08;96205.63;;;1.50
80537;BMP280;69867;47.074;15.404;2024-02-26T04:04:34;96203.91;;;1.49
80537;BMP280;69867;47.074;15.404;2024-02-26T04:06:59;96203.97;;;1.43
80537;BMP280;69867;47.074;15.404;2024-02-26T04:09:25;96192.09;;;1.36
80537;BMP280;69867;47.074;15.404;2024-02-26T04:11:50;96199.81;;;1.33
80537;BMP280;69867;47.074;15.404;2024-02-26T04:14:15;96195.56;;;1.31
80537;BMP280;69867;47.074;15.404;2024-02-26T04:16:41;96193.03;;;1.26
80537;BMP280;69867;47.074;15.404;2024-02-26T04:19:06;96199.88;;;1.24
80537;BMP280;69867;47.074;15.404;2024-02-26T04:21:31;96197.34;;;1.21
80537;BMP280;69867;47.074;15.404;2024-02-26T04:23:57;96199.94;;;1.18
80537;BMP280;69867;47.074;15.404;2024-02-26T04:26:22;96204.19;;;1.19
80537;BMP280;69867;47.074;15.404;2024-02-26T04:28:47;96202.47;;;1.18
80537;BMP280;69867;47.074;15.404;2024-02-26T04:31:13;96196.53;;;1.14
80537;BMP280;69867;47.074;15.404;2024-02-26T04:33:38;96188.00;;;1.15
80537;BMP280;69867;47.074;15.404;2024-02-26T04:36:04;96195.69;;;1.14
80537;BMP280;69867;47.074;15.404;2024-02-26T04:38:29;96191.44;;;1.14
80537;BMP280;69867;47.074;15.404;2024-02-26T04:40:54;96194.88;;;1.09
80537;BMP280;69867;47.074;15.404;2024-02-26T04:43:20;96201.69;;;1.13
80537;BMP280;69867;47.074;15.404;2024-02-26T04:45:45;96197.47;;;1.06
80537;BMP280;69867;47.074;15.404;2024-02-26T04:48:10;96203.44;;;1.06
80537;BMP280;69867;47.074;15.404;2024-02-26T04:50:36;96197.44;;;1.10
80537;BMP280;69867;47.074;15.404;2024-02-26T04:53:01;96196.59;;;1.10
80537;BMP280;69867;47.074;15.404;2024-02-26T04:55:26;96197.44;;;1.10
80537;BMP280;69867;47.074;15.404;2024-02-26T04:57:52;96193.19;;;1.09
80537;BMP280;69867;47.074;15.404;2024-02-26T05:00:17;96204.28;;;1.07
80537;BMP280;69867;47.074;15.404;2024-02-26T05:02:43;96203.47;;;1.02
80537;BMP280;69867;47.074;15.404;2024-02-26T05:05:08;96192.41;;;1.00
80537;BMP280;69867;47.074;15.404;2024-02-26T05:07:33;96194.09;;;1.01
80537;BMP280;69867;47.074;15.404;2024-02-26T05:09:59;96197.53;;;1.00
80537;BMP280;69867;47.074;15.404;2024-02-26T05:12:24;96197.56;;;0.96
80537;BMP280;69867;47.074;15.404;2024-02-26T05:14:50;96194.13;;;0.99
80537;BMP280;69867;47.074;15.404;2024-02-26T05:17:15;96197.56;;;0.96
80537;BMP280;69867;47.074;15.404;2024-02-26T05:19:41;96200.97;;;0.95
80537;BMP280;69867;47.074;15.404;2024-02-26T05:22:06;96195.88;;;0.94
80537;BMP280;69867;47.074;15.404;2024-02-26T05:24:31;96193.28;;;0.95
80537;BMP280;69867;47.074;15.404;2024-02-26T05:26:57;96195.00;;;0.95
80537;BMP280;69867;47.074;15.404;2024-02-26T05:29:22;96189.06;;;0.91
80537;BMP280;69867;47.074;15.404;2024-02-26T05:31:47;96193.34;;;0.89
80537;BMP280;69867;47.074;15.404;2024-02-26T05:34:13;96182.28;;;0.87
80537;BMP280;69867;47.074;15.404;2024-02-26T05:36:38;96182.28;;;0.89
80537;BMP280;69867;47.074;15.404;2024-02-26T05:39:03;96181.41;;;0.91
80537;BMP280;69867;47.074;15.404;2024-02-26T05:41:29;96191.59;;;0.94
80537;BMP280;69867;47.074;15.404;2024-02-26T05:43:55;96191.63;;;0.93
80537;BMP280;69867;47.074;15.404;2024-02-26T05:46:21;96183.94;;;0.94
80537;BMP280;69867;47.074;15.404;2024-02-26T05:48:47;96193.28;;;0.95
80537;BMP280;69867;47.074;15.404;2024-02-26T05:51:13;96194.97;;;0.98
80537;BMP280;69867;47.074;15.404;2024-02-26T05:53:38;96192.44;;;0.96
80537;BMP280;69867;47.074;15.404;2024-02-26T05:56:03;96192.47;;;0.93
80537;BMP280;69867;47.074;15.404;2024-02-26T05:58:29;96195.84;;;0.97
80537;BMP280;69867;47.074;15.404;2024-02-26T06:00:54;96191.56;;;0.98
80537;BMP280;69867;47.074;15.404;2024-02-26T06:03:19;96198.41;;;0.95
80537;BMP280;69867;47.074;15.404;2024-02-26T06:05:46;96194.16;;;0.96
80537;BMP280;69867;47.074;15.404;2024-02-26T06:08:11;96204.38;;;0.94
80537;BMP280;69867;47.074;15.404;2024-02-26T06:10:36;96206.91;;;0.98
80537;BMP280;69867;47.074;15.404;2024-02-26T06:13:02;96204.34;;;1.01
80537;BMP280;69867;47.074;15.404;2024-02-26T06:15:27;96214.53;;;1.04
80537;BMP280;69867;47.074;15.404;2024-02-26T06:17:52;96220.47;;;1.07
80537;BMP280;69867;47.074;15.404;2024-02-26T06:20:18;96222.16;;;1.11
80537;BMP280;69867;47.074;15.404;2024-02-26T06:22:43;96225.50;;;1.18
80537;BMP280;69867;47.074;15.404;2024-02-26T06:28:11;96231.44;;;1.23
80537;BMP280;69867;47.074;15.404;2024-02-26T06:30:36;96233.09;;;1.30
80537;BMP280;69867;47.074;15.404;2024-02-26T06:33:01;96239.06;;;1.32
80537;BMP280;69867;47.074;15.404;2024-02-26T06:35:27;96243.19;;;1.45
80537;BMP280;69867;47.074;15.404;2024-02-26T06:37:52;96238.09;;;1.42
80537;BMP280;69867;47.074;15.404;2024-02-26T06:40:18;96244.91;;;1.46
80537;BMP280;69867;47.074;15.404;2024-02-26T06:42:44;96245.69;;;1.54
80537;BMP280;69867;47.074;15.404;2024-02-26T06:45:09;96249.91;;;1.58
80537;BMP280;69867;47.074;15.404;2024-02-26T06:47:34;96245.53;;;1.68
80537;BMP280;69867;47.074;15.404;2024-02-26T06:50:00;96251.38;;;1.81
80537;BMP280;69867;47.074;15.404;2024-02-26T06:52:25;96248.75;;;1.88
80537;BMP280;69867;47.074;15.404;2024-02-26T06:54:50;96246.16;;;1.90
80537;BMP280;69867;47.074;15.404;2024-02-26T06:57:16;96246.09;;;1.96
80537;BMP280;69867;47.074;15.404;2024-02-26T06:59:41;96247.69;;;2.06
80537;BMP280;69867;47.074;15.404;2024-02-26T07:02:06;96257.84;;;2.12
80537;BMP280;69867;47.074;15.404;2024-02-26T07:04:32;96250.09;;;2.20
80537;BMP280;69867;47.074;15.404;2024-02-26T07:06:57;96255.09;;;2.29
80537;BMP280;69867;47.074;15.404;2024-02-26T07:09:22;96256.75;;;2.33
80537;BMP280;69867;47.074;15.404;2024-02-26T07:11:48;96248.16;;;2.37
80537;BMP280;69867;47.074;15.404;2024-02-26T07:14:13;96257.53;;;2.38
80537;BMP280;69867;47.074;15.404;2024-02-26T07:16:39;96259.16;;;2.45
80537;BMP280;69867;47.074;15.404;2024-02-26T07:19:04;96255.72;;;2.48
80537;BMP280;69867;47.074;15.404;2024-02-26T07:21:29;96262.50;;;2.50
80537;BMP280;69867;47.074;15.404;2024-02-26T07:23:55;96259.09;;;2.50
80537;BMP280;69867;47.074;15.404;2024-02-26T07:26:20;96260.72;;;2.55
80537;BMP280;69867;47.074;15.404;2024-02-26T07:28:45;96264.06;;;2.65
80537;BMP280;69867;47.074;15.404;2024-02-26T07:31:11;96263.94;;;2.74
80537;BMP280;69867;47.074;15.404;2024-02-26T07:33:36;96256.84;;;2.92
80537;BMP280;69867;47.074;15.404;2024-02-26T07:36:02;96255.81;;;3.03
80537;BMP280;69867;47.074;15.404;2024-02-26T07:38:27;96259.19;;;3.05
80537;BMP280;69867;47.074;15.404;2024-02-26T07:40:52;96258.22;;;3.14
80537;BMP280;69867;47.074;15.404;2024-02-26T07:43:18;96263.19;;;3.23
80537;BMP280;69867;47.074;15.404;2024-02-26T07:45:43;96260.50;;;3.31
80537;BMP280;69867;47.074;15.404;2024-02-26T07:48:08;96250.94;;;3.40
80537;BMP280;69867;47.074;15.404;2024-02-26T07:50:33;96255.91;;;3.49
80537;BMP280;69867;47.074;15.404;2024-02-26T07:52:59;96249.66;;;3.64
80537;BMP280;69867;47.074;15.404;2024-02-26T07:55:24;96255.50;;;3.74
80537;BMP280;69867;47.074;15.404;2024-02-26T07:57:49;96259.53;;;3.87
80537;BMP280;69867;47.074;15.404;2024-02-26T08:00:15;96258.38;;;4.05
80537;BMP280;69867;47.074;15.404;2024-02-26T08:02:40;96259.00;;;4.17
80537;BMP280;69867;47.074;15.404;2024-02-26T08:05:06;96276.69;;;4.33
80537;BMP280;69867;47.074;15.404;2024-02-26T08:07:31;96277.47;;;4.36
80537;BMP280;69867;47.074;15.404;2024-02-26T08:09:57;96277.31;;;4.44
80537;BMP280;69867;47.074;15.404;2024-02-26T08:12:22;96269.41;;;4.53
80537;BMP280;69867;47.074;15.404;2024-02-26T08:14:47;96274.31;;;4.65
80537;BMP280;69867;47.074;15.404;2024-02-26T08:17:12;96274.09;;;4.74
80537;BMP280;69867;47.074;15.404;2024-02-26T08:19:38;96272.16;;;4.86
80537;BMP280;69867;47.074;15.404;2024-02-26T08:22:03;96272.75;;;4.97
80537;BMP280;69867;47.074;15.404;2024-02-26T08:24:29;96279.34;;;5.08
80537;BMP280;69867;47.074;15.404;2024-02-26T08:26:54;96278.25;;;5.20
80537;BMP280;69867;47.074;15.404;2024-02-26T08:29:20;96278.03;;;5.29
80537;BMP280;69867;47.074;15.404;2024-02-26T08:31:45;96279.41;;;5.44
80537;BMP280;69867;47.074;15.404;2024-02-26T08:34:10;96278.19;;;5.59
80537;BMP280;69867;47.074;15.404;2024-02-26T08:36:36;96273.53;;;5.73
80537;BMP280;69867;47.074;15.404;2024-02-26T08:39:01;96267.22;;;5.85
80537;BMP280;69867;47.074;15.404;2024-02-26T08:41:26;96272.91;;;5.99
80537;BMP280;69867;47.074;15.404;2024-02-26T08:43:51;96274.22;;;6.14
80537;BMP280;69867;47.074;15.404;2024-02-26T08:46:17;96273.97;;;6.23
80537;BMP280;69867;47.074;15.404;2024-02-26T08:48:42;96279.66;;;6.35
80537;BMP280;69867;47.074;15.404;2024-02-26T08:51:08;96279.25;;;6.51
80537;BMP280;69867;47.074;15.404;2024-02-26T08:53:35;96277.25;;;6.60
80537;BMP280;69867;47.074;15.404;2024-02-26T08:56:00;96271.81;;;6.69
80537;BMP280;69867;47.074;15.404;2024-02-26T08:58:27;96273.69;;;6.64
80537;BMP280;69867;47.074;15.404;2024-02-26T09:00:52;96281.34;;;6.67
80537;BMP280;69867;47.074;15.404;2024-02-26T09:03:18;96279.38;;;6.76
80537;BMP280;69867;47.074;15.404;2024-02-26T09:05:43;96274.66;;;6.90
80537;BMP280;69867;47.074;15.404;2024-02-26T09:08:08;96276.13;;;6.98
80537;BMP280;69867;47.074;15.404;2024-02-26T09:10:34;96267.88;;;7.15
80537;BMP280;69867;47.074;15.404;2024-02-26T09:12:59;96256.34;;;7.25
80537;BMP280;69867;47.074;15.404;2024-02-26T09:15:24;96261.94;;;7.39
80537;BMP280;69867;47.074;15.404;2024-02-26T09:17:50;96257.16;;;7.54
80537;BMP280;69867;47.074;15.404;2024-02-26T09:20:16;96251.63;;;7.64
80537;BMP280;69867;47.074;15.404;2024-02-26T09:22:41;96255.44;;;7.79
80537;BMP280;69867;47.074;15.404;2024-02-26T09:25:07;96261.25;;;7.87
80537;BMP280;69867;47.074;15.404;2024-02-26T09:27:32;96264.50;;;7.92
80537;BMP280;69867;47.074;15.404;2024-02-26T09:29:58;96257.34;;;8.00
80537;BMP280;69867;47.074;15.404;2024-02-26T09:32:23;96261.94;;;7.92
80537;BMP280;69867;47.074;15.404;2024-02-26T09:34:48;96251.91;;;8.08
80537;BMP280;69867;47.074;15.404;2024-02-26T09:37:13;96251.75;;;8.13
80537;BMP280;69867;47.074;15.404;2024-02-26T09:39:39;96258.97;;;8.28
80537;BMP280;69867;47.074;15.404;2024-02-26T09:42:05;96253.38;;;8.40
80537;BMP280;69867;47.074;15.404;2024-02-26T09:44:31;96253.50;;;8.60
80537;BMP280;69867;47.074;15.404;2024-02-26T09:46:58;96273.53;;;8.79
80537;BMP280;69867;47.074;15.404;2024-02-26T09:49:24;96268.78;;;8.90
80537;BMP280;69867;47.074;15.404;2024-02-26T09:51:49;96270.88;;;9.04
80537;BMP280;69867;47.074;15.404;2024-02-26T09:54:15;96271.72;;;9.04
80537;BMP280;69867;47.074;15.404;2024-02-26T09:56:42;96274.25;;;9.06
80537;BMP280;69867;47.074;15.404;2024-02-26T09:59:11;96268.44;;;9.22
80537;BMP280;69867;47.074;15.404;2024-02-26T10:01:39;96264.47;;;9.36
80537;BMP280;69867;47.074;15.404;2024-02-26T10:04:08;96261.69;;;9.40
80537;BMP280;69867;47.074;15.404;2024-02-26T10:06:34;96264.88;;;9.47
80537;BMP280;69867;47.074;15.404;2024-02-26T10:09:00;96276.69;;;9.54
80537;BMP280;69867;47.074;15.404;2024-02-26T10:11:26;96282.59;;;9.57
80537;BMP280;69867;47.074;15.404;2024-02-26T10:13:52;96273.06;;;9.58
80537;BMP280;69867;47.074;15.404;2024-02-26T10:16:17;96274.63;;;9.62
80537;BMP280;69867;47.074;15.404;2024-02-26T10:18:49;96265.56;;;9.72
80537;BMP280;69867;47.074;15.404;2024-02-26T10:21:18;96275.22;;;9.69
80537;BMP280;69867;47.074;15.404;2024-02-26T10:23:44;96277.75;;;9.70
80537;BMP280;69867;47.074;15.404;2024-02-26T10:26:10;96279.31;;;9.74
80537;BMP280;69867;47.074;15.404;2024-02-26T10:28:37;96271.81;;;9.88
80537;BMP280;69867;47.074;15.404;2024-02-26T10:31:03;96274.28;;;9.91
80537;BMP280;69867;47.074;15.404;2024-02-26T10:33:28;96271.56;;;9.94
80537;BMP280;69867;47.074;15.404;2024-02-26T10:35:53;96271.56;;;9.94
80537;BMP280;69867;47.074;15.404;2024-02-26T10:38:19;96269.69;;;9.98
80537;BMP280;69867;47.074;15.404;2024-02-26T10:40:44;96262.22;;;10.11
80537;BMP280;69867;47.074;15.404;2024-02-26T10:43:09;96265.16;;;10.23
80537;BMP280;69867;47.074;15.404;2024-02-26T10:45:35;96265.09;;;10.45
80537;BMP280;69867;47.074;15.404;2024-02-26T10:48:00;96264.91;;;10.50
80537;BMP280;69867;47.074;15.404;2024-02-26T10:50:26;96261.50;;;10.68
80537;BMP280;69867;47.074;15.404;2024-02-26T10:52:52;96265.22;;;10.81
80537;BMP280;69867;47.074;15.404;2024-02-26T10:55:21;96271.81;;;10.88
80537;BMP280;69867;47.074;15.404;2024-02-26T10:57:47;96270.13;;;11.06
80537;BMP280;69867;47.074;15.404;2024-02-26T11:00:14;96268.59;;;11.21
80537;BMP280;69867;47.074;15.404;2024-02-26T11:02:40;96262.81;;;11.33
80537;BMP280;69867;47.074;15.404;2024-02-26T11:05:07;96262.38;;;11.42
80537;BMP280;69867;47.074;15.404;2024-02-26T11:07:34;96250.06;;;11.46
80537;BMP280;69867;47.074;15.404;2024-02-26T11:10:00;96252.50;;;11.49
80537;BMP280;69867;47.074;15.404;2024-02-26T11:12:27;96253.66;;;11.43
80537;BMP280;69867;47.074;15.404;2024-02-26T11:14:53;96251.34;;;11.37
80537;BMP280;69867;47.074;15.404;2024-02-26T11:17:19;96248.19;;;11.31
80537;BMP280;69867;47.074;15.404;2024-02-26T11:19:46;96251.84;;;11.27
80537;BMP280;69867;47.074;15.404;2024-02-26T11:22:11;96251.09;;;11.25
80537;BMP280;69867;47.074;15.404;2024-02-26T11:24:37;96241.31;;;11.30
80537;BMP280;69867;47.074;15.404;2024-02-26T11:27:04;96233.91;;;11.39
80537;BMP280;69867;47.074;15.404;2024-02-26T11:29:44;96234.75;;;11.40
80537;BMP280;69867;47.074;15.404;2024-02-26T11:32:12;96234.59;;;11.43
80537;BMP280;69867;47.074;15.404;2024-02-26T11:34:38;96234.22;;;11.50
80537;BMP280;69867;47.074;15.404;2024-02-26T11:37:16;96233.31;;;11.51
80537;BMP280;69867;47.074;15.404;2024-02-26T11:39:43;96227.44;;;11.65
80537;BMP280;69867;47.074;15.404;2024-02-26T11:42:09;96221.97;;;11.71
80537;BMP280;69867;47.074;15.404;2024-02-26T11:44:35;96222.88;;;11.70
80537;BMP280;69867;47.074;15.404;2024-02-26T11:47:27;96224.75;;;11.85
80537;BMP280;69867;47.074;15.404;2024-02-26T11:49:53;96220.47;;;12.02
80537;BMP280;69867;47.074;15.404;2024-02-26T11:52:18;96220.59;;;12.16
80537;BMP280;69867;47.074;15.404;2024-02-26T11:54:57;96217.59;;;12.24
80537;BMP280;69867;47.074;15.404;2024-02-26T11:57:23;96229.94;;;12.03
80537;BMP280;69867;47.074;15.404;2024-02-26T11:59:48;96226.13;;;12.10
80537;BMP280;69867;47.074;15.404;2024-02-26T12:02:51;96225.50;;;12.05
80537;BMP280;69867;47.074;15.404;2024-02-26T12:05:20;96212.66;;;12.02
80537;BMP280;69867;47.074;15.404;2024-02-26T12:07:47;96212.34;;;12.08
80537;BMP280;69867;47.074;15.404;2024-02-26T12:10:28;96219.69;;;12.17
80537;BMP280;69867;47.074;15.404;2024-02-26T12:13:00;96216.63;;;12.09
80537;BMP280;69867;47.074;15.404;2024-02-26T12:15:55;96210.41;;;12.11
80537;BMP280;69867;47.074;15.404;2024-02-26T12:18:22;96203.69;;;12.07
80537;BMP280;69867;47.074;15.404;2024-02-26T12:20:58;96204.84;;;12.02
80537;BMP280;69867;47.074;15.404;2024-02-26T12:23:23;96201.00;;;12.09
80537;BMP280;69867;47.074;15.404;2024-02-26T12:25:49;96201.16;;;12.06
80537;BMP280;69867;47.074;15.404;2024-02-26T12:28:14;96206.06;;;12.12
80537;BMP280;69867;47.074;15.404;2024-02-26T12:30:40;96198.09;;;12.15
80537;BMP280;69867;47.074;15.404;2024-02-26T12:33:05;96199.28;;;12.25
80537;BMP280;69867;47.074;15.404;2024-02-26T12:35:31;96205.69;;;12.35
80537;BMP280;69867;47.074;15.404;2024-02-26T12:37:57;96204.28;;;12.45
80537;BMP280;69867;47.074;15.404;2024-02-26T12:40:23;96205.81;;;12.49
80537;BMP280;69867;47.074;15.404;2024-02-26T12:42:53;96200.63;;;12.65
80537;BMP280;69867;47.074;15.404;2024-02-26T12:45:18;96196.00;;;12.70
80537;BMP280;69867;47.074;15.404;2024-02-26T12:47:44;96196.44;;;12.63
80537;BMP280;69867;47.074;15.404;2024-02-26T12:50:10;96186.44;;;12.71
80537;BMP280;69867;47.074;15.404;2024-02-26T12:52:39;96189.13;;;12.85
80537;BMP280;69867;47.074;15.404;2024-02-26T12:55:05;96192.31;;;12.90
80537;BMP280;69867;47.074;15.404;2024-02-26T12:57:32;96198.66;;;13.02
80537;BMP280;69867;47.074;15.404;2024-02-26T12:59:59;96187.63;;;12.97
80537;BMP280;69867;47.074;15.404;2024-02-26T13:02:25;96190.06;;;12.84
80537;BMP280;69867;47.074;15.404;2024-02-26T13:04:51;96196.94;;;12.69
80537;BMP280;69867;47.074;15.404;2024-02-26T13:07:16;96193.97;;;12.60
80537;BMP280;69867;47.074;15.404;2024-02-26T13:09:42;96200.53;;;12.51
80537;BMP280;69867;47.074;15.404;2024-02-26T13:12:08;96201.56;;;12.31
80537;BMP280;69867;47.074;15.404;2024-02-26T13:14:33;96195.69;;;12.28
80537;BMP280;69867;47.074;15.404;2024-02-26T13:16:59;96200.66;;;12.32
80537;BMP280;69867;47.074;15.404;2024-02-26T13:19:28;96187.38;;;12.37
80537;BMP280;69867;47.074;15.404;2024-02-26T13:21:54;96188.47;;;12.33
80537;BMP280;69867;47.074;15.404;2024-02-26T13:24:19;96193.53;;;12.36
80537;BMP280;69867;47.074;15.404;2024-02-26T13:26:45;96192.69;;;12.35
80537;BMP280;69867;47.074;15.404;2024-02-26T13:29:20;96192.69;;;12.35
80537;BMP280;69867;47.074;15.404;2024-02-26T13:31:46;96197.88;;;12.35
80537;BMP280;69867;47.074;15.404;2024-02-26T13:34:11;96205.22;;;12.44
80537;BMP280;69867;47.074;15.404;2024-02-26T13:36:36;96210.66;;;12.40
80537;BMP280;69867;47.074;15.404;2024-02-26T13:39:02;96210.16;;;12.33
80537;BMP280;69867;47.074;15.404;2024-02-26T13:41:27;96200.81;;;12.29
80537;BMP280;69867;47.074;15.404;2024-02-26T13:43:52;96206.25;;;12.25
80537;BMP280;69867;47.074;15.404;2024-02-26T13:46:18;96200.22;;;12.24
80537;BMP280;69867;47.074;15.404;2024-02-26T13:48:43;96210.47;;;12.27
80537;BMP280;69867;47.074;15.404;2024-02-26T13:51:09;96207.78;;;12.29
80537;BMP280;69867;47.074;15.404;2024-02-26T13:53:35;96210.00;;;12.36
80537;BMP280;69867;47.074;15.404;2024-02-26T13:56:00;96212.03;;;12.47
80537;BMP280;69867;47.074;15.404;2024-02-26T13:58:26;96213.38;;;12.54
80537;BMP280;69867;47.074;15.404;2024-02-26T14:00:51;96215.50;;;12.63
80537;BMP280;69867;47.074;15.404;2024-02-26T14:03:17;96214.25;;;12.70